createdAt,value
2022-10-15T00:01:48.678Z,36.65
2022-10-15T00:04:17.595Z,32.05
2022-10-15T00:06:45.883Z,35.42
2022-10-15T00:09:15.504Z,32.80
2022-10-15T00:11:43.746Z,32.50
2022-10-15T00:14:12.016Z,41.40
2022-10-15T00:16:40.433Z,35.47
2022-10-15T00:19:08.606Z,32.42
2022-10-15T00:21:37.368Z,36.22
2022-10-15T00:24:06.495Z,37.63
2022-10-15T00:26:36.181Z,36.58
2022-10-15T00:29:05.819Z,35.88
2022-10-15T00:31:34.904Z,38.83
2022-10-15T00:34:03.831Z,35.13
2022-10-15T00:36:34.688Z,33.80
2022-10-15T00:39:05.546Z,36.00
2022-10-15T00:41:37.942Z,34.63
2022-10-15T00:44:48.794Z,40.58
2022-10-15T00:47:20.415Z,36.78
2022-10-15T00:49:55.135Z,38.95
2022-10-15T00:52:28.492Z,40.03
2022-10-15T00:55:02.081Z,39.65
2022-10-15T00:57:32.458Z,39.53
2022-10-15T01:00:09.183Z,37.83
2022-10-15T01:02:37.591Z,41.10
2022-10-15T01:05:07.264Z,43.33
2022-10-15T01:07:35.731Z,40.57
2022-10-15T01:10:05.530Z,41.30
2022-10-15T01:12:53.963Z,37.97
2022-10-15T01:15:30.185Z,37.78
2022-10-15T01:18:04.854Z,36.35
2022-10-15T01:21:10.396Z,43.45
2022-10-15T01:24:53.497Z,39.72
2022-10-15T01:27:37.514Z,43.38
2022-10-15T01:30:32.111Z,41.75
2022-10-15T01:33:28.739Z,38.50
2022-10-15T01:36:08.422Z,46.38
2022-10-15T01:38:49.919Z,41.80
2022-10-15T01:41:27.998Z,35.75
2022-10-15T01:44:02.564Z,39.03
2022-10-15T01:47:00.166Z,39.90
2022-10-15T01:49:32.964Z,38.65
2022-10-15T01:52:10.571Z,39.88
2022-10-15T01:54:39.543Z,41.15
2022-10-15T01:57:09.538Z,40.30
2022-10-15T01:59:38.094Z,35.10
2022-10-15T02:02:07.674Z,35.72
2022-10-15T02:04:36.241Z,34.97
2022-10-15T02:07:08.550Z,39.03
2022-10-15T02:09:51.674Z,37.40
2022-10-15T02:12:33.313Z,35.80
2022-10-15T02:15:12.131Z,36.15
2022-10-15T02:17:47.595Z,38.63
2022-10-15T02:20:22.131Z,37.58
2022-10-15T02:22:57.458Z,36.72
2022-10-15T02:25:27.076Z,38.92
2022-10-15T02:27:58.123Z,39.60
2022-10-15T02:30:30.291Z,40.78
2022-10-15T02:33:00.860Z,37.67
2022-10-15T02:35:29.696Z,39.70
2022-10-15T02:38:03.648Z,39.63
2022-10-15T02:40:36.974Z,38.47
2022-10-15T02:43:07.830Z,42.00
2022-10-15T02:45:36.639Z,41.60
2022-10-15T02:48:07.995Z,36.60
2022-10-15T02:50:36.739Z,37.90
2022-10-15T02:53:05.604Z,36.88
2022-10-15T02:55:35.189Z,35.22
2022-10-15T02:58:03.549Z,34.80
2022-10-15T03:00:32.227Z,34.95
2022-10-15T03:03:00.816Z,32.97
2022-10-15T03:05:31.236Z,36.38
2022-10-15T03:08:01.296Z,34.55
2022-10-15T03:13:04.637Z,37.22
2022-10-15T03:15:37.677Z,36.05
2022-10-15T03:18:06.938Z,39.58
2022-10-15T03:20:37.825Z,40.15
2022-10-15T03:23:06.238Z,35.53
2022-10-15T03:25:34.646Z,39.03
2022-10-15T03:28:06.145Z,37.97
2022-10-15T03:30:41.416Z,38.05
2022-10-15T03:33:09.920Z,37.65
2022-10-15T03:35:40.871Z,37.28
2022-10-15T03:38:10.582Z,39.22
2022-10-15T03:40:39.279Z,35.22
2022-10-15T03:43:27.976Z,36.08
2022-10-15T03:45:57.444Z,37.50
2022-10-15T03:48:26.359Z,36.38
2022-10-15T03:50:56.198Z,35.58
2022-10-15T03:53:24.716Z,35.37
2022-10-15T03:55:53.113Z,36.15
2022-10-15T03:58:21.615Z,38.80
2022-10-15T04:00:56.171Z,36.20
2022-10-15T04:03:24.566Z,38.92
2022-10-15T04:05:55.995Z,39.42
2022-10-15T04:08:29.220Z,36.30
2022-10-15T04:10:59.142Z,35.28
2022-10-15T04:13:28.373Z,40.25
2022-10-15T04:15:57.432Z,31.70
2022-10-15T04:18:25.983Z,35.83
2022-10-15T04:21:00.203Z,36.50
2022-10-15T04:23:29.125Z,36.70
2022-10-15T04:26:16.098Z,39.13
2022-10-15T04:28:44.641Z,35.88
2022-10-15T04:31:13.101Z,37.38
2022-10-15T04:33:41.716Z,33.97
2022-10-15T04:36:14.988Z,33.45
2022-10-15T04:39:04.697Z,40.45
2022-10-15T04:41:42.401Z,35.97
2022-10-15T04:44:22.362Z,40.47
2022-10-15T04:46:56.110Z,36.30
2022-10-15T04:49:34.234Z,35.78
2022-10-15T04:52:10.073Z,36.85
2022-10-15T04:54:47.001Z,36.92
2022-10-15T04:59:44.449Z,37.53
2022-10-15T05:02:32.945Z,40.50
2022-10-15T05:05:39.855Z,39.17
2022-10-15T05:08:10.094Z,37.67
2022-10-15T05:11:03.017Z,37.70
2022-10-15T05:13:33.084Z,38.08
2022-10-15T05:18:38.953Z,36.50
2022-10-15T05:21:08.004Z,35.63
2022-10-15T05:23:39.036Z,35.58
2022-10-15T05:26:32.176Z,37.83
2022-10-15T05:29:01.703Z,35.85
2022-10-15T05:31:34.589Z,37.35
2022-10-15T05:34:14.299Z,37.08
2022-10-15T05:36:48.948Z,37.08
2022-10-15T05:39:19.044Z,36.00
2022-10-15T05:41:47.587Z,34.70
2022-10-15T05:44:16.148Z,34.75
2022-10-15T05:46:44.485Z,32.35
2022-10-15T05:49:19.191Z,36.85
2022-10-15T05:52:02.464Z,33.15
2022-10-15T05:54:49.556Z,36.67
2022-10-15T05:57:17.948Z,37.67
2022-10-15T05:59:46.232Z,34.65
2022-10-15T06:02:16.325Z,31.88
2022-10-15T06:04:44.870Z,35.42
2022-10-15T06:07:13.175Z,36.38
2022-10-15T06:09:41.572Z,32.45
2022-10-15T06:12:11.238Z,35.92
2022-10-15T06:14:39.468Z,33.33
2022-10-15T06:17:08.379Z,33.65
2022-10-15T06:19:36.664Z,32.55
2022-10-15T06:22:05.150Z,36.33
2022-10-15T06:24:33.459Z,37.17
2022-10-15T06:27:02.927Z,37.47
2022-10-15T06:29:32.652Z,43.38
2022-10-15T06:32:02.962Z,40.40
2022-10-15T06:34:31.395Z,42.05
2022-10-15T06:36:59.679Z,48.20
2022-10-15T06:39:28.009Z,56.85
2022-10-15T06:41:56.294Z,53.05
2022-10-15T06:44:32.892Z,54.35
2022-10-15T06:47:01.212Z,59.28
2022-10-15T06:49:29.505Z,63.80
2022-10-15T06:52:02.584Z,67.60
2022-10-15T06:54:32.290Z,66.93
2022-10-15T06:57:00.596Z,63.75
2022-10-15T06:59:28.853Z,65.95
2022-10-15T07:01:59.030Z,72.30
2022-10-15T07:04:27.374Z,76.38
2022-10-15T07:06:55.654Z,70.38
2022-10-15T07:09:26.132Z,76.82
2022-10-15T07:11:54.474Z,76.15
2022-10-15T07:14:22.761Z,67.38
2022-10-15T07:16:51.175Z,62.80
2022-10-15T07:19:21.294Z,61.63
2022-10-15T07:24:19.667Z,49.25
2022-10-15T07:26:49.088Z,50.67
2022-10-15T07:29:17.840Z,42.90
2022-10-15T07:31:47.741Z,43.83
2022-10-15T07:34:18.165Z,45.08
2022-10-15T07:36:47.894Z,44.50
2022-10-15T07:39:18.928Z,45.72
2022-10-15T07:41:47.224Z,38.75
2022-10-15T07:44:15.453Z,36.17
2022-10-15T07:46:43.809Z,34.22
2022-10-15T07:49:12.142Z,42.28
2022-10-15T07:51:40.463Z,43.47
2022-10-15T07:54:10.129Z,42.83
2022-10-15T07:56:38.437Z,43.07
2022-10-15T07:59:06.679Z,44.03
2022-10-15T08:01:35.195Z,45.03
2022-10-15T08:04:04.171Z,50.38
2022-10-15T08:06:33.448Z,50.00
2022-10-15T08:09:01.760Z,53.85
2022-10-15T08:11:32.069Z,59.67
2022-10-15T08:14:00.490Z,51.23
2022-10-15T08:16:28.855Z,52.70
2022-10-15T08:19:00.605Z,57.20
2022-10-15T08:21:28.970Z,56.38
2022-10-15T08:23:57.193Z,61.78
2022-10-15T08:26:36.018Z,66.00
2022-10-15T08:29:04.632Z,63.70
2022-10-15T08:31:33.301Z,64.53
2022-10-15T08:34:01.942Z,58.38
2022-10-15T08:36:30.486Z,58.72
2022-10-15T08:38:59.280Z,57.08
2022-10-15T08:41:37.137Z,55.92
2022-10-15T08:44:06.410Z,55.28
2022-10-15T08:46:39.964Z,53.38
2022-10-15T08:49:15.744Z,56.05
2022-10-15T08:51:53.506Z,50.15
2022-10-15T08:54:22.113Z,44.10
2022-10-15T08:57:03.586Z,41.70
2022-10-15T08:59:38.762Z,42.63
2022-10-15T09:02:18.383Z,36.92
2022-10-15T09:04:55.378Z,41.08
2022-10-15T09:07:31.246Z,39.75
2022-10-15T09:10:12.272Z,43.53
2022-10-15T09:12:52.498Z,42.45
2022-10-15T09:15:25.491Z,41.17
2022-10-15T09:17:57.008Z,40.17
2022-10-15T09:20:34.070Z,41.92
2022-10-15T09:23:02.898Z,43.40
2022-10-15T09:25:37.147Z,42.15
2022-10-15T09:28:17.002Z,43.67
2022-10-15T09:30:50.953Z,40.75
2022-10-15T09:33:34.924Z,42.22
2022-10-15T09:36:24.867Z,41.63
2022-10-15T09:39:06.326Z,37.60
2022-10-15T09:41:51.640Z,37.67
2022-10-15T09:44:26.548Z,36.42
2022-10-15T09:46:54.867Z,34.90
2022-10-15T09:49:29.358Z,33.35
2022-10-15T09:52:10.432Z,35.03
2022-10-15T09:54:47.405Z,30.50
2022-10-15T09:57:18.736Z,31.02
2022-10-15T10:00:14.784Z,30.73
2022-10-15T10:02:44.210Z,29.45
2022-10-15T10:05:30.541Z,28.50
2022-10-15T10:08:11.071Z,24.27
2022-10-15T10:10:41.854Z,26.67
2022-10-15T10:13:25.891Z,22.70
2022-10-15T10:15:59.481Z,22.45
2022-10-15T10:18:28.251Z,20.40
2022-10-15T10:20:59.909Z,19.85
2022-10-15T10:23:34.823Z,22.42
2022-10-15T10:26:04.642Z,18.55
2022-10-15T10:28:39.383Z,18.73
2022-10-15T10:31:13.653Z,18.50
2022-10-15T10:33:47.746Z,16.38
2022-10-15T10:36:28.382Z,17.33
2022-10-15T10:39:02.796Z,17.10
2022-10-15T10:41:50.503Z,17.48
2022-10-15T10:44:30.921Z,16.65
2022-10-15T10:47:16.462Z,14.50
2022-10-15T10:49:47.401Z,15.52
2022-10-15T10:52:28.928Z,14.63
2022-10-15T10:55:03.024Z,14.93
2022-10-15T10:57:42.648Z,15.05
2022-10-15T11:00:17.607Z,14.23
2022-10-15T11:02:52.728Z,14.73
2022-10-15T11:05:28.895Z,14.40
2022-10-15T11:08:09.964Z,14.32
2022-10-15T11:10:47.106Z,13.55
2022-10-15T11:13:39.084Z,13.90
2022-10-15T11:16:20.725Z,14.07
2022-10-15T11:19:19.715Z,14.30
2022-10-15T11:22:15.638Z,15.02
2022-10-15T11:25:05.895Z,16.05
2022-10-15T11:27:51.824Z,16.92
2022-10-15T11:30:39.640Z,15.80
2022-10-15T11:33:28.874Z,17.38
2022-10-15T11:36:21.420Z,15.60
2022-10-15T11:39:01.481Z,14.10
2022-10-15T11:41:44.937Z,14.02
2022-10-15T11:44:33.922Z,13.32
2022-10-15T11:47:25.464Z,13.32
2022-10-15T11:50:09.436Z,13.05
2022-10-15T11:52:59.477Z,12.68
2022-10-15T11:55:36.508Z,12.00
2022-10-15T11:58:13.198Z,12.23
2022-10-15T12:00:46.875Z,12.60
2022-10-15T12:03:20.959Z,11.05
2022-10-15T12:05:54.908Z,12.00
2022-10-15T12:08:29.499Z,11.48
2022-10-15T12:11:22.079Z,10.10
2022-10-15T12:13:58.023Z,11.23
2022-10-15T12:16:35.024Z,11.05
2022-10-15T12:19:15.376Z,10.10
2022-10-15T12:22:06.898Z,11.07
2022-10-15T12:24:56.682Z,10.23
2022-10-15T12:27:35.538Z,10.18
2022-10-15T12:30:23.742Z,9.32
2022-10-15T12:32:53.987Z,10.98
2022-10-15T12:35:45.566Z,8.88
2022-10-15T12:38:28.194Z,9.60
2022-10-15T12:41:11.107Z,8.48
2022-10-15T12:43:43.384Z,8.80
2022-10-15T12:46:12.991Z,9.00
2022-10-15T12:48:43.772Z,7.20
2022-10-15T12:51:39.398Z,7.10
2022-10-15T12:54:41.577Z,6.22
2022-10-15T12:57:55.767Z,7.60
2022-10-15T13:00:42.615Z,4.25
2022-10-15T13:03:43.796Z,4.68
2022-10-15T13:06:34.321Z,5.15
2022-10-15T13:09:25.247Z,4.80
2022-10-15T13:11:55.888Z,5.82
2022-10-15T13:14:32.974Z,6.55
2022-10-15T13:17:05.338Z,4.95
2022-10-15T13:19:39.735Z,6.10
2022-10-15T13:22:22.368Z,6.40
2022-10-15T13:24:50.797Z,6.20
2022-10-15T13:27:26.992Z,9.10
2022-10-15T13:29:59.387Z,5.45
2022-10-15T13:32:30.833Z,4.72
2022-10-15T13:35:00.039Z,5.55
2022-10-15T13:37:36.244Z,8.98
2022-10-15T13:40:08.040Z,5.65
2022-10-15T13:42:36.914Z,11.23
2022-10-15T13:45:18.904Z,4.90
2022-10-15T13:47:50.491Z,7.53
2022-10-15T13:50:23.021Z,5.20
2022-10-15T13:52:55.314Z,6.30
2022-10-15T13:55:28.530Z,3.92
2022-10-15T13:58:01.662Z,6.32
2022-10-15T14:00:35.062Z,6.97
2022-10-15T14:03:25.745Z,6.40
2022-10-15T14:05:56.742Z,7.88
2022-10-15T14:08:29.766Z,7.40
2022-10-15T14:11:00.418Z,6.35
2022-10-15T14:16:15.294Z,8.48
2022-10-15T14:18:49.159Z,6.18
2022-10-15T14:21:21.100Z,6.07
2022-10-15T14:23:50.939Z,4.95
2022-10-15T14:26:25.835Z,5.72
2022-10-15T14:28:55.892Z,7.07
2022-10-15T14:31:42.491Z,8.48
2022-10-15T14:34:30.325Z,5.63
2022-10-15T14:36:58.952Z,6.03
2022-10-15T14:39:31.719Z,5.10
2022-10-15T14:42:02.494Z,5.95
2022-10-15T14:44:44.557Z,8.55
2022-10-15T14:47:22.282Z,8.32
2022-10-15T14:49:54.181Z,5.82
2022-10-15T14:52:23.634Z,9.82
2022-10-15T14:55:04.287Z,8.52
2022-10-15T14:57:37.512Z,8.77
2022-10-15T15:00:22.072Z,7.68
2022-10-15T15:02:52.061Z,5.00
2022-10-15T15:05:24.203Z,6.03
2022-10-15T15:07:52.899Z,4.43
2022-10-15T15:10:21.770Z,6.75
2022-10-15T15:12:54.904Z,5.60
2022-10-15T15:15:26.498Z,3.92
2022-10-15T15:17:56.227Z,3.88
2022-10-15T15:20:25.982Z,3.57
2022-10-15T15:22:56.418Z,6.95
2022-10-15T15:25:33.629Z,6.47
2022-10-15T15:28:02.305Z,6.72
2022-10-15T15:30:34.330Z,8.82
2022-10-15T15:33:04.153Z,6.20
2022-10-15T15:35:41.059Z,9.17
2022-10-15T15:38:09.524Z,7.47
2022-10-15T15:40:37.850Z,5.88
2022-10-15T15:43:06.279Z,8.68
2022-10-15T15:45:34.825Z,7.78
2022-10-15T15:48:05.223Z,6.15
2022-10-15T15:50:33.685Z,6.82
2022-10-15T15:53:01.974Z,10.95
2022-10-15T15:55:30.585Z,8.80
2022-10-15T15:57:58.853Z,11.18
2022-10-15T16:00:27.260Z,10.25
2022-10-15T16:02:57.907Z,10.38
2022-10-15T16:05:28.065Z,12.27
2022-10-15T16:07:56.394Z,14.77
2022-10-15T16:10:25.250Z,12.20
2022-10-15T16:12:53.726Z,11.98
2022-10-15T16:15:21.980Z,13.05
2022-10-15T16:17:50.354Z,11.27
2022-10-15T16:20:18.808Z,12.70
2022-10-15T16:22:51.103Z,9.30
2022-10-15T16:25:19.644Z,12.18
2022-10-15T16:27:49.310Z,8.30
2022-10-15T16:30:17.996Z,8.50
2022-10-15T16:32:46.458Z,15.82
2022-10-15T16:35:14.882Z,15.40
2022-10-15T16:37:43.181Z,17.45
2022-10-15T16:40:14.943Z,12.90
2022-10-15T16:42:43.279Z,14.05
2022-10-15T16:45:12.452Z,13.55
2022-10-15T16:47:40.695Z,13.82
2022-10-15T16:50:10.443Z,15.23
2022-10-15T16:52:38.901Z,13.33
2022-10-15T16:55:08.158Z,12.35
2022-10-15T16:57:37.869Z,12.98
2022-10-15T17:00:07.455Z,12.97
2022-10-15T17:02:35.714Z,18.38
2022-10-15T17:05:04.107Z,17.33
2022-10-15T17:07:32.626Z,14.77
2022-10-15T17:10:00.995Z,20.17
2022-10-15T17:12:29.605Z,15.30
2022-10-15T17:14:59.237Z,13.48
2022-10-15T17:17:27.699Z,14.57
2022-10-15T17:19:55.992Z,15.63
2022-10-15T17:22:24.902Z,17.60
2022-10-15T17:24:53.538Z,20.63
2022-10-15T17:27:21.823Z,16.35
2022-10-15T17:29:50.134Z,13.40
2022-10-15T17:32:19.820Z,13.55
2022-10-15T17:34:48.327Z,21.17
2022-10-15T17:37:16.785Z,9.00
2022-10-15T17:39:45.280Z,15.00
2022-10-15T17:42:15.689Z,15.65
2022-10-15T17:44:44.006Z,19.55
2022-10-15T17:47:13.395Z,16.33
2022-10-15T17:49:43.069Z,14.80
2022-10-15T17:52:11.826Z,13.43
2022-10-15T17:54:40.331Z,15.10
2022-10-15T17:57:08.632Z,13.30
2022-10-15T17:59:36.985Z,14.02
2022-10-15T18:02:05.453Z,9.95
2022-10-15T18:04:40.502Z,11.90
2022-10-15T18:07:10.201Z,9.23
2022-10-15T18:09:38.595Z,10.93
2022-10-15T18:12:07.513Z,13.90
2022-10-15T18:14:36.886Z,10.90
2022-10-15T18:17:06.316Z,12.48
2022-10-15T18:19:34.681Z,14.32
2022-10-15T18:22:02.982Z,13.85
2022-10-15T18:24:33.125Z,8.63
2022-10-15T18:27:06.172Z,9.52
2022-10-15T18:29:35.995Z,11.48
2022-10-15T18:32:04.684Z,10.45
2022-10-15T18:34:34.229Z,13.48
2022-10-15T18:37:02.544Z,9.75
2022-10-15T18:39:32.231Z,11.65
2022-10-15T18:42:00.596Z,10.73
2022-10-15T18:44:29.342Z,10.70
2022-10-15T18:46:57.708Z,15.30
2022-10-15T18:49:26.230Z,12.23
2022-10-15T18:51:55.434Z,8.82
2022-10-15T18:54:24.097Z,12.48
2022-10-15T18:56:53.886Z,13.95
2022-10-15T18:59:22.426Z,9.55
2022-10-15T19:01:53.743Z,7.13
2022-10-15T19:04:24.492Z,11.77
2022-10-15T19:09:26.473Z,9.97
2022-10-15T19:11:58.297Z,8.27
2022-10-15T19:14:29.162Z,10.35
2022-10-15T19:16:58.356Z,5.97
2022-10-15T19:19:27.549Z,7.35
2022-10-15T19:21:58.847Z,12.48
2022-10-15T19:24:27.149Z,10.85
2022-10-15T19:26:57.028Z,9.60
2022-10-15T19:29:25.470Z,10.68
2022-10-15T19:31:56.785Z,9.57
2022-10-15T19:34:25.594Z,8.30
2022-10-15T19:36:53.961Z,7.28
2022-10-15T19:39:24.913Z,8.60
2022-10-15T19:41:54.379Z,11.70
2022-10-15T19:44:27.614Z,14.48
2022-10-15T19:46:56.359Z,9.98
2022-10-15T19:49:25.296Z,7.60
2022-10-15T19:51:54.799Z,11.65
2022-10-15T19:56:56.765Z,8.93
2022-10-15T19:59:26.535Z,8.13
2022-10-15T20:01:54.923Z,12.00
2022-10-15T20:04:23.727Z,11.18
2022-10-15T20:06:52.879Z,10.32
2022-10-15T20:09:21.192Z,7.85
2022-10-15T20:11:49.592Z,8.57
2022-10-15T20:14:17.870Z,10.77
2022-10-15T20:16:47.580Z,15.88
2022-10-15T20:19:15.970Z,11.53
2022-10-15T20:21:44.415Z,11.85
2022-10-15T20:24:12.722Z,7.63
2022-10-15T20:26:40.999Z,9.55
2022-10-15T20:29:09.595Z,10.55
2022-10-15T20:31:37.900Z,12.70
2022-10-15T20:34:07.569Z,15.65
2022-10-15T20:36:41.099Z,7.25
2022-10-15T20:39:09.516Z,11.32
2022-10-15T20:41:38.003Z,11.18
2022-10-15T20:44:06.715Z,11.05
2022-10-15T20:46:39.769Z,10.98
2022-10-15T20:49:16.258Z,11.32
2022-10-15T20:51:46.342Z,8.63
2022-10-15T20:54:16.716Z,10.38
2022-10-15T20:56:45.062Z,7.53
2022-10-15T20:59:13.915Z,12.77
2022-10-15T21:01:42.507Z,6.72
2022-10-15T21:04:12.262Z,7.88
2022-10-15T21:06:40.872Z,12.27
2022-10-15T21:09:09.326Z,9.20
2022-10-15T21:11:42.700Z,11.35
2022-10-15T21:14:11.366Z,11.00
2022-10-15T21:16:39.920Z,8.30
2022-10-15T21:19:08.447Z,10.38
2022-10-15T21:21:38.129Z,8.45
2022-10-15T21:24:07.137Z,6.50
2022-10-15T21:26:35.377Z,11.50
2022-10-15T21:29:03.823Z,7.18
2022-10-15T21:31:32.268Z,11.65
2022-10-15T21:34:00.590Z,8.65
2022-10-15T21:36:30.053Z,12.25
2022-10-15T21:39:02.508Z,8.45
2022-10-15T21:41:33.602Z,7.35
2022-10-15T21:44:03.138Z,7.25
2022-10-15T21:46:32.266Z,11.45
2022-10-15T21:49:01.567Z,12.70
2022-10-15T21:51:32.218Z,7.97
2022-10-15T21:54:04.305Z,7.57
2022-10-15T21:56:32.824Z,7.07
2022-10-15T21:59:01.266Z,6.70
2022-10-15T22:01:32.177Z,6.60
2022-10-15T22:04:02.609Z,8.00
2022-10-15T22:06:31.994Z,10.52
2022-10-15T22:09:02.800Z,5.50
2022-10-15T22:11:34.968Z,8.02
2022-10-15T22:14:07.574Z,8.85
2022-10-15T22:16:38.611Z,8.02
2022-10-15T22:19:09.155Z,7.45
2022-10-15T22:21:39.876Z,5.47
2022-10-15T22:26:43.356Z,6.07
2022-10-15T22:29:20.425Z,5.78
2022-10-15T22:31:48.922Z,6.80
2022-10-15T22:34:17.627Z,6.18
2022-10-15T22:36:46.319Z,6.57
2022-10-15T22:39:18.464Z,7.03
2022-10-15T22:41:48.813Z,4.65
2022-10-15T22:44:20.862Z,7.53
2022-10-15T22:46:50.111Z,7.22
2022-10-15T22:49:21.110Z,7.07
2022-10-15T22:51:50.360Z,6.60
2022-10-15T22:54:22.782Z,5.38
2022-10-15T22:56:51.910Z,6.80
2022-10-15T22:59:20.781Z,6.50
2022-10-15T23:01:49.134Z,6.68
2022-10-15T23:04:18.019Z,6.78
2022-10-15T23:06:46.370Z,8.50
2022-10-15T23:09:17.929Z,6.13
2022-10-15T23:11:48.192Z,6.75
2022-10-15T23:14:18.539Z,8.95
2022-10-15T23:16:49.028Z,7.88
2022-10-15T23:19:20.073Z,5.57
2022-10-15T23:21:50.542Z,5.95
2022-10-15T23:24:21.322Z,5.72
2022-10-15T23:29:22.333Z,4.88
2022-10-15T23:31:52.723Z,7.63
2022-10-15T23:34:23.233Z,5.65
2022-10-15T23:36:52.628Z,4.85
2022-10-15T23:39:23.449Z,8.25
2022-10-15T23:41:53.531Z,6.13
2022-10-15T23:44:25.350Z,6.10
2022-10-15T23:46:54.019Z,4.18
2022-10-15T23:49:22.343Z,4.55
2022-10-15T23:51:50.615Z,5.75
2022-10-15T23:54:19.876Z,6.63
2022-10-15T23:56:49.009Z,4.45
2022-10-15T23:59:18.661Z,4.25
